Time;durP1;ratioP1;P1;durP2;ratioP2;P2;SDS_P1;SDS_P2;PMS_P1;PMS_P2;Temp;Humidity;BMP_temperature;BMP_pressure;BME280_temperature;BME280_humidity;BME280_pressure;Samples;Min_cycle;Max_cycle;Signal;HPM_P1;HPM_P2
2023/09/19 03:00:52;;;;;;;;;;;13.10;99.90;;;;;;5908059;22;19930;-76
2023/09/19 03:03:17;;;;;;;;;;;13.10;99.90;;;;;;5076587;28;19920;-75
2023/09/19 03:05:47;;;;;;;;;;;13.20;99.90;;;;;;5076444;28;19926;-77
2023/09/19 03:08:14;;;;;;;;;;;13.20;99.90;;;;;;5094471;28;19920;-76
2023/09/19 03:10:40;;;;;;;;;;;13.30;99.90;;;;;;5076597;28;20256;-77
2023/09/19 03:13:09;;;;;;;;;;;13.20;99.90;;;;;;5076874;28;19920;-75
2023/09/19 03:15:38;;;;;;;;;;;13.20;99.90;;;;;;5094268;28;19924;-75
2023/09/19 03:18:04;;;;;;;;;;;13.20;99.90;;;;;;5076010;28;19956;-76
2023/09/19 03:20:29;;;;;;;;;;;13.20;99.90;;;;;;5076324;28;19978;-76
2023/09/19 03:22:55;;;;;;;;;;;13.20;99.90;;;;;;5059286;28;19931;-75
2023/09/19 03:25:23;;;;;;;;;;;13.20;99.90;;;;;;5075917;28;19920;-77
2023/09/19 03:27:48;;;;;;;;;;;13.10;99.90;;;;;;5076132;28;19935;-76
2023/09/19 03:30:14;;;;;;;;;;;13.10;99.90;;;;;;5094303;28;19920;-76
2023/09/19 03:32:46;;;;;;;;;;;13.10;99.90;;;;;;5075843;28;20324;-76
2023/09/19 03:35:13;;;;;;;;;;;13.10;99.90;;;;;;5076933;28;19924;-76
2023/09/19 03:37:42;;;;;;;;;;;13.10;99.90;;;;;;5076035;28;19927;-76
2023/09/19 03:40:08;;;;;;;;;;;13.10;99.90;;;;;;5076177;28;19924;-76
2023/09/19 03:42:36;;;;;;;;;;;13.10;99.90;;;;;;5075680;28;20015;-75
2023/09/19 03:45:05;;;;;;;;;;;13.10;99.90;;;;;;5076466;28;19923;-75
2023/09/19 03:47:31;;;;;;;;;;;13.10;99.90;;;;;;5075968;28;19927;-77
2023/09/19 03:49:56;;;;;;;;;;;13.10;99.90;;;;;;5075710;28;20287;-76
2023/09/19 03:52:22;;;;;;;;;;;13.10;99.90;;;;;;5076444;28;20342;-75
2023/09/19 03:54:47;;;;;;;;;;;13.10;99.90;;;;;;5076460;28;19967;-77
2023/09/19 03:57:15;;;;;;;;;;;13.20;99.90;;;;;;5075670;28;19920;-76
2023/09/19 03:59:42;;;;;;;;;;;13.20;99.90;;;;;;5076098;28;19920;-76
2023/09/19 04:02:12;;;;;;;;;;;13.20;99.90;;;;;;5087832;28;20006;-74
2023/09/19 04:04:37;;;;;;;;;;;13.20;99.90;;;;;;5092438;28;19929;-76
2023/09/19 04:07:03;;;;;;;;;;;13.20;99.90;;;;;;5092634;28;19920;-75
2023/09/19 04:09:28;;;;;;;;;;;13.30;99.90;;;;;;5092446;28;20286;-76
2023/09/19 04:11:54;;;;;;;;;;;13.20;99.90;;;;;;5092699;28;19927;-76
2023/09/19 04:14:19;;;;;;;;;;;13.30;99.90;;;;;;5092453;28;20291;-77
2023/09/19 04:16:45;;;;;;;;;;;13.30;99.90;;;;;;5092285;28;19928;-77
2023/09/19 04:19:11;;;;;;;;;;;13.30;99.90;;;;;;5077649;28;19920;-76
2023/09/19 04:21:36;;;;;;;;;;;13.30;99.90;;;;;;5096051;28;19924;-77
2023/09/19 04:24:02;;;;;;;;;;;13.30;99.90;;;;;;5096553;28;19924;-77
2023/09/19 04:26:28;;;;;;;;;;;13.30;99.90;;;;;;5096214;28;19969;-77
2023/09/19 04:28:53;;;;;;;;;;;13.30;99.90;;;;;;5096113;28;20286;-75
2023/09/19 04:31:20;;;;;;;;;;;13.30;99.90;;;;;;5097701;28;19924;-77
2023/09/19 04:33:46;;;;;;;;;;;13.30;99.90;;;;;;5097271;28;19924;-76
2023/09/19 04:36:13;;;;;;;;;;;13.30;99.90;;;;;;5097306;28;19919;-77
2023/09/19 04:38:38;;;;;;;;;;;13.30;99.90;;;;;;5096262;28;20305;-76
2023/09/19 04:41:04;;;;;;;;;;;13.30;99.90;;;;;;5095804;28;19925;-77
2023/09/19 04:43:30;;;;;;;;;;;13.30;99.90;;;;;;5095811;28;19920;-76
2023/09/19 04:45:55;;;;;;;;;;;13.30;99.90;;;;;;5095845;28;19931;-77
2023/09/19 04:48:23;;;;;;;;;;;13.20;99.90;;;;;;5095752;28;19920;-77
2023/09/19 04:50:49;;;;;;;;;;;13.20;99.90;;;;;;5095636;28;20434;-80
2023/09/19 04:53:15;;;;;;;;;;;13.30;99.90;;;;;;5095607;28;19978;-79
2023/09/19 04:55:40;;;;;;;;;;;13.20;99.90;;;;;;5078619;28;20290;-79
2023/09/19 04:58:06;;;;;;;;;;;13.20;99.90;;;;;;5095635;28;19920;-80
2023/09/19 05:00:34;;;;;;;;;;;13.20;99.90;;;;;;5078373;28;19981;-80
2023/09/19 05:03:00;;;;;;;;;;;13.20;99.90;;;;;;5078677;28;19920;-80
2023/09/19 05:05:26;;;;;;;;;;;13.20;99.90;;;;;;5078897;28;19969;-78
2023/09/19 05:07:53;;;;;;;;;;;13.20;99.90;;;;;;5062072;28;20390;-80
2023/09/19 05:10:20;;;;;;;;;;;13.20;99.90;;;;;;5078390;28;19920;-79
2023/09/19 05:12:47;;;;;;;;;;;13.20;99.90;;;;;;5078346;28;19924;-79
2023/09/19 05:15:14;;;;;;;;;;;13.20;99.90;;;;;;5078627;28;19920;-79
2023/09/19 05:17:40;;;;;;;;;;;13.20;99.90;;;;;;5061586;28;20398;-78
2023/09/19 05:20:15;;;;;;;;;;;13.20;99.90;;;;;;5078724;28;19928;-80
2023/09/19 05:22:41;;;;;;;;;;;13.20;99.90;;;;;;5078389;28;20000;-78
2023/09/19 05:25:07;;;;;;;;;;;13.20;99.90;;;;;;5078085;28;19920;-79
2023/09/19 05:27:33;;;;;;;;;;;13.30;99.90;;;;;;5078299;28;19964;-78
2023/09/19 05:29:59;;;;;;;;;;;13.30;99.90;;;;;;5077833;28;19920;-81
2023/09/19 05:32:25;;;;;;;;;;;13.30;99.90;;;;;;5077962;28;19930;-78
2023/09/19 05:34:53;;;;;;;;;;;13.30;99.90;;;;;;5078375;28;19920;-79
2023/09/19 05:37:19;;;;;;;;;;;13.30;99.90;;;;;;5077768;28;20405;-79
2023/09/19 05:39:44;;;;;;;;;;;13.30;99.90;;;;;;5078194;28;19924;-80
2023/09/19 05:42:10;;;;;;;;;;;13.30;99.90;;;;;;5095973;28;20386;-81
2023/09/19 05:44:35;;;;;;;;;;;13.30;99.90;;;;;;5077885;28;19920;-81
2023/09/19 05:47:02;;;;;;;;;;;13.30;99.90;;;;;;5078772;28;19926;-78
2023/09/19 05:49:27;;;;;;;;;;;13.30;99.90;;;;;;5096074;28;19927;-79
2023/09/19 05:51:54;;;;;;;;;;;13.30;99.90;;;;;;5095606;28;20010;-80
2023/09/19 05:54:20;;;;;;;;;;;13.30;99.90;;;;;;5077511;28;19928;-81
2023/09/19 05:56:52;;;;;;;;;;;13.30;99.90;;;;;;5077772;28;19920;-80
2023/09/19 05:59:18;;;;;;;;;;;13.40;99.90;;;;;;5077370;28;19920;-78
2023/09/19 06:01:43;;;;;;;;;;;13.40;99.90;;;;;;5095101;28;19924;-79
2023/09/19 06:04:10;;;;;;;;;;;13.40;99.90;;;;;;5076506;28;21450;-77
2023/09/19 06:06:38;;;;;;;;;;;13.50;99.90;;;;;;5077677;28;19932;-79
2023/09/19 06:09:08;;;;;;;;;;;13.50;99.90;;;;;;5077687;28;19920;-79
2023/09/19 06:11:34;;;;;;;;;;;13.50;99.90;;;;;;5077687;28;20338;-76
2023/09/19 06:14:01;;;;;;;;;;;13.50;99.90;;;;;;5095326;28;19977;-76
2023/09/19 06:16:28;;;;;;;;;;;13.50;99.90;;;;;;5096013;28;19924;-77
2023/09/19 06:18:55;;;;;;;;;;;13.50;99.90;;;;;;5077287;28;19920;-77
2023/09/19 06:21:21;;;;;;;;;;;13.50;99.90;;;;;;5076801;28;20375;-77
2023/09/19 06:23:47;;;;;;;;;;;13.50;99.90;;;;;;5095027;28;19920;-76
2023/09/19 06:26:13;;;;;;;;;;;13.50;99.90;;;;;;5094937;28;20325;-78
2023/09/19 06:28:38;;;;;;;;;;;13.50;99.90;;;;;;5095252;28;19920;-78
2023/09/19 06:31:09;;;;;;;;;;;13.50;99.90;;;;;;5077219;28;19920;-76
2023/09/19 06:33:41;;;;;;;;;;;13.60;99.90;;;;;;5077711;28;19920;-77
2023/09/19 06:36:07;;;;;;;;;;;13.60;99.90;;;;;;5076694;28;19919;-77
2023/09/19 06:38:35;;;;;;;;;;;13.50;99.90;;;;;;5076915;28;20011;-77
2023/09/19 06:41:04;;;;;;;;;;;13.50;99.90;;;;;;5076078;28;20276;-76
2023/09/19 06:43:30;;;;;;;;;;;13.50;99.90;;;;;;5076871;28;19920;-77
2023/09/19 06:45:57;;;;;;;;;;;13.50;99.90;;;;;;5095109;28;20014;-76
2023/09/19 06:48:24;;;;;;;;;;;13.40;99.90;;;;;;5076968;28;19920;-76
2023/09/19 06:50:50;;;;;;;;;;;13.50;99.90;;;;;;5076253;28;19927;-78
2023/09/19 06:53:17;;;;;;;;;;;13.50;99.90;;;;;;5076307;28;19978;-78
2023/09/19 06:55:43;;;;;;;;;;;13.50;99.90;;;;;;5094732;28;19927;-76
2023/09/19 06:58:10;;;;;;;;;;;13.60;99.90;;;;;;5076255;28;19993;-77
2023/09/19 07:00:37;;;;;;;;;;;13.60;99.90;;;;;;5075875;28;19978;-76
2023/09/19 07:03:03;;;;;;;;;;;13.60;99.90;;;;;;5076606;28;19920;-77
2023/09/19 07:05:31;;;;;;;;;;;13.70;99.90;;;;;;5076399;28;19920;-78
2023/09/19 07:07:58;;;;;;;;;;;13.80;99.90;;;;;;5076199;28;19931;-77
2023/09/19 07:10:25;;;;;;;;;;;13.80;99.90;;;;;;5076135;28;19920;-77
2023/09/19 07:13:01;;;;;;;;;;;13.80;99.90;;;;;;5076468;28;19920;-78
2023/09/19 07:15:27;;;;;;;;;;;13.80;99.90;;;;;;5076688;28;19967;-77
2023/09/19 07:17:53;;;;;;;;;;;13.80;99.90;;;;;;5076070;28;19927;-76
2023/09/19 07:20:20;;;;;;;;;;;13.80;99.90;;;;;;5059082;28;19924;-77
2023/09/19 07:22:46;;;;;;;;;;;13.80;99.90;;;;;;5075963;28;20085;-78
2023/09/19 07:25:13;;;;;;;;;;;13.80;99.90;;;;;;5076202;28;20028;-77
2023/09/19 07:27:40;;;;;;;;;;;13.80;99.90;;;;;;5059526;28;19927;-77
2023/09/19 07:30:06;;;;;;;;;;;13.80;99.90;;;;;;5076176;28;20011;-78
2023/09/19 07:32:31;;;;;;;;;;;13.80;99.90;;;;;;5093923;28;19997;-78
2023/09/19 07:34:57;;;;;;;;;;;13.90;99.90;;;;;;5059116;28;20011;-77
2023/09/19 07:37:25;;;;;;;;;;;13.80;99.90;;;;;;5075998;28;20022;-77
2023/09/19 07:39:51;;;;;;;;;;;13.90;99.90;;;;;;5075686;28;19927;-77
2023/09/19 07:42:17;;;;;;;;;;;14.00;99.90;;;;;;5075608;28;19920;-77
2023/09/19 07:44:46;;;;;;;;;;;14.10;99.90;;;;;;5075682;28;19920;-76
2023/09/19 07:47:13;;;;;;;;;;;14.10;99.90;;;;;;5075682;28;19966;-77
2023/09/19 07:49:39;;;;;;;;;;;14.10;99.90;;;;;;5075719;28;19971;-78
2023/09/19 07:52:04;;;;;;;;;;;14.20;99.90;;;;;;5075725;28;20003;-76
2023/09/19 07:54:35;;;;;;;;;;;14.20;99.90;;;;;;5079801;28;19974;-73
2023/09/19 07:57:01;;;;;;;;;;;14.30;99.90;;;;;;5080195;28;19930;-78
2023/09/19 07:59:26;;;;;;;;;;;14.30;99.90;;;;;;5080511;28;19927;-77
2023/09/19 08:01:52;;;;;;;;;;;14.30;99.90;;;;;;5073171;28;19925;-77
2023/09/19 08:04:19;;;;;;;;;;;14.30;99.90;;;;;;5096838;28;20371;-76
2023/09/19 08:06:44;;;;;;;;;;;14.40;99.90;;;;;;5109805;27;19920;-78
2023/09/19 08:09:12;;;;;;;;;;;14.40;99.90;;;;;;5120289;27;19927;-78
2023/09/19 08:11:39;;;;;;;;;;;14.40;99.90;;;;;;5120187;27;19931;-78
2023/09/19 08:14:05;;;;;;;;;;;14.40;99.90;;;;;;5138946;27;19919;-77
2023/09/19 08:16:31;;;;;;;;;;;14.50;99.90;;;;;;5137632;27;20335;-78
2023/09/19 08:18:56;;;;;;;;;;;14.50;99.90;;;;;;5137544;27;19927;-77
2023/09/19 08:21:23;;;;;;;;;;;14.60;99.90;;;;;;5138323;27;19930;-76
2023/09/19 08:23:49;;;;;;;;;;;14.60;99.90;;;;;;5138724;27;19920;-77
2023/09/19 08:26:15;;;;;;;;;;;14.70;99.90;;;;;;5137482;27;19968;-77
2023/09/19 08:28:41;;;;;;;;;;;14.80;99.90;;;;;;5137075;27;19919;-77
2023/09/19 08:31:07;;;;;;;;;;;14.80;99.90;;;;;;5136988;27;19967;-78
2023/09/19 08:33:33;;;;;;;;;;;14.90;99.90;;;;;;5137345;27;19919;-77
2023/09/19 08:35:59;;;;;;;;;;;14.90;99.90;;;;;;5137055;27;19939;-79
2023/09/19 08:38:29;;;;;;;;;;;15.00;99.90;;;;;;5137189;27;19919;-78
2023/09/19 08:40:59;;;;;;;;;;;15.10;99.90;;;;;;5137043;27;19972;-77
2023/09/19 08:43:25;;;;;;;;;;;15.20;99.90;;;;;;5138083;27;20282;-77
2023/09/19 08:45:55;;;;;;;;;;;15.20;99.90;;;;;;5137850;27;19988;-78
2023/09/19 08:48:23;;;;;;;;;;;15.20;99.90;;;;;;5137136;27;19992;-77
2023/09/19 08:50:55;;;;;;;;;;;15.20;99.90;;;;;;5136600;27;19919;-74
2023/09/19 08:53:31;;;;;;;;;;;15.20;99.90;;;;;;5137937;27;19920;-76
2023/09/19 08:56:01;;;;;;;;;;;15.20;99.90;;;;;;5137838;27;20329;-76
2023/09/19 08:58:30;;;;;;;;;;;15.30;99.90;;;;;;5119794;27;19919;-74
2023/09/19 09:00:56;;;;;;;;;;;15.40;99.90;;;;;;5136248;27;19923;-75
2023/09/19 09:03:22;;;;;;;;;;;15.60;99.90;;;;;;5137785;27;20271;-77
2023/09/19 09:05:50;;;;;;;;;;;15.70;99.90;;;;;;5136554;27;19927;-77
2023/09/19 09:08:22;;;;;;;;;;;15.80;99.90;;;;;;5136384;27;19929;-76
2023/09/19 09:10:48;;;;;;;;;;;15.90;99.90;;;;;;5136086;27;19926;-78
2023/09/19 09:13:15;;;;;;;;;;;16.00;99.90;;;;;;5136289;27;19919;-79
2023/09/19 09:15:41;;;;;;;;;;;16.10;99.90;;;;;;5134975;27;19919;-78
2023/09/19 09:18:07;;;;;;;;;;;16.20;99.90;;;;;;5136188;27;20279;-77
2023/09/19 09:20:32;;;;;;;;;;;16.30;99.90;;;;;;5136006;27;19923;-76
2023/09/19 09:23:03;;;;;;;;;;;16.40;99.90;;;;;;5136260;27;20277;-75
2023/09/19 09:26:09;;;;;;;;;;;16.40;99.90;;;;;;5136042;27;20026;-74
2023/09/19 09:28:38;;;;;;;;;;;16.50;99.90;;;;;;5020647;28;20321;-77
2023/09/19 09:31:09;;;;;;;;;;;16.60;99.90;;;;;;5020554;28;20372;-77
2023/09/19 09:33:35;;;;;;;;;;;16.60;99.90;;;;;;5088256;27;19968;-76
2023/09/19 09:36:02;;;;;;;;;;;16.60;99.90;;;;;;5135768;27;19920;-78
2023/09/19 09:38:31;;;;;;;;;;;16.70;99.90;;;;;;5136999;27;19920;-76
2023/09/19 09:41:07;;;;;;;;;;;16.80;99.90;;;;;;5135663;27;19946;-77
2023/09/19 09:43:36;;;;;;;;;;;16.80;99.90;;;;;;5135945;27;20282;-75
2023/09/19 09:49:11;;;;;;;;;;;16.80;99.90;;;;;;5137383;27;19920;-77
2023/09/19 09:51:33;;;;;;;;;;;16.90;99.90;;;;;;5136534;27;19920;-76
2023/09/19 09:54:12;;;;;;;;;;;16.90;99.90;;;;;;5135365;27;19968;-77
2023/09/19 09:56:54;;;;;;;;;;;16.90;99.90;;;;;;5135602;27;20002;-74
2023/09/19 09:59:27;;;;;;;;;;;16.90;99.90;;;;;;5135479;27;20287;-76
2023/09/19 10:01:53;;;;;;;;;;;16.90;99.90;;;;;;5135165;27;19924;-77
2023/09/19 10:04:36;;;;;;;;;;;16.90;99.90;;;;;;5135237;27;19919;-75
2023/09/19 10:07:05;;;;;;;;;;;16.90;99.90;;;;;;5135522;27;19927;-76
2023/09/19 10:09:44;;;;;;;;;;;16.90;99.90;;;;;;5136915;27;19967;-77
2023/09/19 10:12:11;;;;;;;;;;;17.00;99.90;;;;;;5134987;27;19919;-76
2023/09/19 10:14:38;;;;;;;;;;;17.00;99.90;;;;;;5134916;27;19920;-75
2023/09/19 10:17:09;;;;;;;;;;;17.00;99.90;;;;;;5135202;27;20361;-76
2023/09/19 10:19:57;;;;;;;;;;;17.00;99.90;;;;;;5135011;27;19931;-76
2023/09/19 10:22:24;;;;;;;;;;;17.10;99.90;;;;;;5134810;27;19930;-77
2023/09/19 10:24:52;;;;;;;;;;;17.10;99.90;;;;;;5135094;27;19920;-76
2023/09/19 10:27:19;;;;;;;;;;;17.00;99.90;;;;;;5134709;27;20286;-76
2023/09/19 10:29:47;;;;;;;;;;;16.90;99.90;;;;;;5134715;27;20009;-77
2023/09/19 10:32:18;;;;;;;;;;;17.00;99.90;;;;;;5134838;27;19919;-75
2023/09/19 10:34:44;;;;;;;;;;;17.10;99.90;;;;;;5136177;27;20114;-77
2023/09/19 10:37:12;;;;;;;;;;;17.20;99.90;;;;;;5134814;27;20405;-76
2023/09/19 10:39:40;;;;;;;;;;;17.20;99.90;;;;;;5135001;27;19992;-76
2023/09/19 10:42:08;;;;;;;;;;;17.40;99.90;;;;;;5135780;27;20061;-78
2023/09/19 10:44:38;;;;;;;;;;;17.40;99.90;;;;;;5136153;27;19920;-73
2023/09/19 10:47:07;;;;;;;;;;;17.40;99.90;;;;;;5134848;27;19926;-77
2023/09/19 10:49:33;;;;;;;;;;;17.50;99.90;;;;;;5135982;27;19965;-76
2023/09/19 10:51:59;;;;;;;;;;;17.50;99.90;;;;;;5134746;27;19920;-75
2023/09/19 10:54:28;;;;;;;;;;;17.50;99.90;;;;;;5136182;27;19998;-77
2023/09/19 10:56:53;;;;;;;;;;;17.50;99.90;;;;;;5134561;27;20425;-74
2023/09/19 10:59:20;;;;;;;;;;;17.50;99.90;;;;;;5135411;27;19962;-75
2023/09/19 11:01:56;;;;;;;;;;;17.40;99.90;;;;;;5134820;27;20034;-76
2023/09/19 11:04:35;;;;;;;;;;;17.30;99.90;;;;;;5134058;27;20014;-75
2023/09/19 11:07:16;;;;;;;;;;;17.30;99.90;;;;;;5134150;27;20382;-76
2023/09/19 11:09:48;;;;;;;;;;;17.20;99.90;;;;;;5134065;27;20339;-76
2023/09/19 11:12:29;;;;;;;;;;;17.40;99.90;;;;;;5132375;27;19945;-76
2023/09/19 11:14:58;;;;;;;;;;;17.60;99.90;;;;;;5132331;27;19926;-76
2023/09/19 11:17:31;;;;;;;;;;;17.60;99.90;;;;;;5132543;27;20009;-77
2023/09/19 11:20:15;;;;;;;;;;;17.70;99.90;;;;;;5115075;27;19955;-77
2023/09/19 11:22:50;;;;;;;;;;;17.70;99.90;;;;;;5133710;27;20286;-76
2023/09/19 11:25:29;;;;;;;;;;;17.70;99.90;;;;;;5133598;27;19923;-75
2023/09/19 11:28:08;;;;;;;;;;;17.70;99.90;;;;;;5134014;27;19972;-76
2023/09/19 11:30:43;;;;;;;;;;;17.80;99.90;;;;;;5135205;27;20316;-77
2023/09/19 11:33:21;;;;;;;;;;;17.70;99.90;;;;;;5133695;27;19965;-76
2023/09/19 11:36:02;;;;;;;;;;;17.70;99.90;;;;;;5133660;27;20397;-75
2023/09/19 11:38:52;;;;;;;;;;;17.60;99.90;;;;;;5133624;27;19973;-77
2023/09/19 11:41:21;;;;;;;;;;;17.50;99.90;;;;;;5116369;27;19930;-76
2023/09/19 11:43:47;;;;;;;;;;;17.50;99.90;;;;;;5116462;28;19927;-78
2023/09/19 11:46:16;;;;;;;;;;;17.50;99.90;;;;;;5133531;27;19919;-76
2023/09/19 11:48:44;;;;;;;;;;;17.50;99.90;;;;;;5133761;27;20013;-76
2023/09/19 11:51:21;;;;;;;;;;;17.50;99.90;;;;;;5133432;27;19927;-76
2023/09/19 11:53:48;;;;;;;;;;;17.50;99.90;;;;;;5133734;28;19919;-77
2023/09/19 11:56:15;;;;;;;;;;;17.50;99.90;;;;;;5133483;28;20367;-76
2023/09/19 11:58:42;;;;;;;;;;;17.50;99.90;;;;;;5133829;28;19934;-76
2023/09/19 12:01:12;;;;;;;;;;;17.50;99.90;;;;;;5133117;28;19923;-78
2023/09/19 12:03:41;;;;;;;;;;;17.40;99.90;;;;;;5116355;28;19927;-77
2023/09/19 12:06:11;;;;;;;;;;;17.50;99.90;;;;;;5133323;28;20371;-75
2023/09/19 12:08:39;;;;;;;;;;;17.40;99.90;;;;;;5133216;28;19934;-77
2023/09/19 12:11:08;;;;;;;;;;;17.50;99.90;;;;;;5134808;27;19972;-78
2023/09/19 12:13:37;;;;;;;;;;;17.50;99.90;;;;;;5133242;28;19934;-78
2023/09/19 12:16:11;;;;;;;;;;;17.50;99.90;;;;;;5135080;27;20311;-75
2023/09/19 12:18:36;;;;;;;;;;;17.60;99.90;;;;;;5133560;28;19962;-76
2023/09/19 12:21:02;;;;;;;;;;;17.70;99.90;;;;;;5133203;28;20389;-77
2023/09/19 12:23:28;;;;;;;;;;;17.80;99.90;;;;;;5133307;28;19927;-77
2023/09/19 12:25:56;;;;;;;;;;;18.00;99.90;;;;;;5136305;28;19919;-76
2023/09/19 12:28:26;;;;;;;;;;;18.00;99.90;;;;;;5133971;28;20006;-76
2023/09/19 12:30:55;;;;;;;;;;;18.10;99.90;;;;;;5136201;27;20026;-76
2023/09/19 12:33:21;;;;;;;;;;;18.10;99.90;;;;;;5133047;28;20390;-75
2023/09/19 12:35:47;;;;;;;;;;;18.10;99.90;;;;;;5133085;28;19930;-77
2023/09/19 12:38:29;;;;;;;;;;;18.10;99.90;;;;;;5134358;27;20294;-77
2023/09/19 12:40:55;;;;;;;;;;;18.10;99.90;;;;;;5118917;27;19924;-76
2023/09/19 12:43:21;;;;;;;;;;;18.00;99.90;;;;;;5120003;27;19920;-77
2023/09/19 12:45:48;;;;;;;;;;;17.90;99.90;;;;;;5137270;27;20039;-78
2023/09/19 12:48:29;;;;;;;;;;;17.80;99.90;;;;;;5136741;27;19988;-77
2023/09/19 12:51:03;;;;;;;;;;;17.80;99.90;;;;;;5137950;27;19926;-77
2023/09/19 12:53:29;;;;;;;;;;;17.80;99.90;;;;;;5136934;27;19919;-76
2023/09/19 12:55:58;;;;;;;;;;;17.80;99.90;;;;;;5136559;27;20395;-78
2023/09/19 12:58:24;;;;;;;;;;;17.80;99.90;;;;;;5136624;27;19926;-76
2023/09/19 13:00:51;;;;;;;;;;;17.80;99.90;;;;;;5136245;27;20308;-76
2023/09/19 13:03:28;;;;;;;;;;;17.80;99.90;;;;;;5136466;27;20010;-77
2023/09/19 13:05:59;;;;;;;;;;;17.80;99.90;;;;;;5136692;27;19943;-75
2023/09/19 13:08:37;;;;;;;;;;;17.80;99.90;;;;;;5136318;27;20005;-77
2023/09/19 13:11:12;;;;;;;;;;;17.80;99.90;;;;;;5137975;27;19919;-78
2023/09/19 13:13:49;;;;;;;;;;;17.80;99.90;;;;;;5136290;27;19925;-76
2023/09/19 13:16:21;;;;;;;;;;;17.90;99.90;;;;;;5136209;27;19927;-77
2023/09/19 13:18:50;;;;;;;;;;;17.90;99.90;;;;;;5136146;27;20275;-77
2023/09/19 13:21:23;;;;;;;;;;;17.90;99.90;;;;;;5136249;27;19931;-77
2023/09/19 13:23:49;;;;;;;;;;;17.90;99.90;;;;;;5136722;27;19972;-75
2023/09/19 13:26:15;;;;;;;;;;;17.90;99.90;;;;;;5136526;27;19963;-77
2023/09/19 13:28:41;;;;;;;;;;;17.80;99.90;;;;;;5137448;27;19943;-72
2023/09/19 13:31:06;;;;;;;;;;;17.70;99.90;;;;;;5136018;27;19919;-77
2023/09/19 13:33:33;;;;;;;;;;;17.50;99.90;;;;;;5135840;27;20287;-77
2023/09/19 13:35:59;;;;;;;;;;;17.50;99.90;;;;;;5137061;27;19920;-78
2023/09/19 13:38:24;;;;;;;;;;;17.50;99.90;;;;;;5135849;27;19919;-76
2023/09/19 13:40:52;;;;;;;;;;;17.50;99.90;;;;;;5137180;27;19934;-74
2023/09/19 13:43:18;;;;;;;;;;;17.60;99.90;;;;;;5137033;27;20374;-75
2023/09/19 13:45:43;;;;;;;;;;;17.70;99.90;;;;;;5118923;27;19923;-76
2023/09/19 13:48:11;;;;;;;;;;;17.70;99.90;;;;;;5135668;27;20298;-77
2023/09/19 13:50:41;;;;;;;;;;;17.80;99.90;;;;;;5136963;27;19928;-78
2023/09/19 13:53:11;;;;;;;;;;;17.80;99.90;;;;;;5135973;27;19926;-78
2023/09/19 13:55:37;;;;;;;;;;;17.90;99.90;;;;;;5136058;27;19926;-76
2023/09/19 13:58:06;;;;;;;;;;;18.00;99.90;;;;;;5135480;27;19969;-78
2023/09/19 14:00:34;;;;;;;;;;;17.90;99.90;;;;;;5135173;27;19974;-76
2023/09/19 14:03:00;;;;;;;;;;;18.00;99.90;;;;;;5136925;27;19919;-75
2023/09/19 14:05:27;;;;;;;;;;;18.00;99.90;;;;;;5101123;27;19923;-78
2023/09/19 14:07:55;;;;;;;;;;;18.00;99.90;;;;;;5136907;27;19919;-78
2023/09/19 14:10:21;;;;;;;;;;;18.10;99.90;;;;;;5118070;27;20422;-75
2023/09/19 14:12:47;;;;;;;;;;;18.10;99.90;;;;;;5118027;27;19996;-75
2023/09/19 14:15:13;;;;;;;;;;;18.10;99.90;;;;;;5136809;27;19927;-77
2023/09/19 14:17:39;;;;;;;;;;;18.10;99.90;;;;;;5118071;27;19919;-74
2023/09/19 14:20:06;;;;;;;;;;;18.20;99.90;;;;;;5124897;27;19923;-77
2023/09/19 14:22:33;;;;;;;;;;;18.10;99.90;;;;;;5097546;28;19959;-76
2023/09/19 14:24:59;;;;;;;;;;;18.20;99.90;;;;;;5097940;28;20278;-76
2023/09/19 14:27:25;;;;;;;;;;;18.20;99.90;;;;;;5115865;28;19943;-78
2023/09/19 14:29:51;;;;;;;;;;;18.20;99.90;;;;;;5080905;28;19920;-77
2023/09/19 14:32:16;;;;;;;;;;;18.20;99.90;;;;;;5097155;28;19920;-75
2023/09/19 14:34:44;;;;;;;;;;;18.20;99.90;;;;;;5115450;28;20275;-78
2023/09/19 14:37:11;;;;;;;;;;;18.10;99.90;;;;;;5097120;28;19927;-74
2023/09/19 14:39:38;;;;;;;;;;;18.10;99.90;;;;;;5115529;28;20033;-77
2023/09/19 14:42:04;;;;;;;;;;;18.00;99.90;;;;;;5080011;28;19923;-78
2023/09/19 14:44:29;;;;;;;;;;;18.00;99.90;;;;;;5096909;28;20325;-77
2023/09/19 14:46:55;;;;;;;;;;;17.90;99.90;;;;;;5097560;28;19959;-75
2023/09/19 14:49:21;;;;;;;;;;;18.00;99.90;;;;;;5115389;28;19962;-76
2023/09/19 14:51:47;;;;;;;;;;;18.00;99.90;;;;;;5115525;28;19920;-77
2023/09/19 14:54:16;;;;;;;;;;;17.90;99.90;;;;;;5096756;28;19919;-75
2023/09/19 14:56:42;;;;;;;;;;;17.90;99.90;;;;;;5080066;28;20275;-77
2023/09/19 14:59:10;;;;;;;;;;;17.80;99.90;;;;;;5096623;28;19926;-76
2023/09/19 15:01:36;;;;;;;;;;;17.80;99.90;;;;;;5104519;28;19935;-76
2023/09/19 15:04:02;;;;;;;;;;;17.60;99.90;;;;;;5096208;28;19920;-77
2023/09/19 15:06:28;;;;;;;;;;;17.60;99.90;;;;;;5113874;28;19920;-77
2023/09/19 15:08:53;;;;;;;;;;;17.50;99.90;;;;;;5114881;28;20410;-76
2023/09/19 15:11:20;;;;;;;;;;;17.40;99.90;;;;;;5113395;28;19920;-77
2023/09/19 15:13:46;;;;;;;;;;;17.30;99.90;;;;;;5113725;28;20281;-76
2023/09/19 15:16:12;;;;;;;;;;;17.30;99.90;;;;;;5113365;28;19920;-77
2023/09/19 15:18:40;;;;;;;;;;;17.30;99.90;;;;;;5113559;28;20381;-78
2023/09/19 15:21:06;;;;;;;;;;;17.30;99.90;;;;;;5114435;28;19930;-79
2023/09/19 15:23:36;;;;;;;;;;;17.20;99.90;;;;;;5114396;28;19965;-76
2023/09/19 15:26:02;;;;;;;;;;;17.20;99.90;;;;;;5113293;28;19919;-77
2023/09/19 15:28:32;;;;;;;;;;;17.10;99.90;;;;;;5113153;28;19919;-78
2023/09/19 15:30:58;;;;;;;;;;;17.00;99.90;;;;;;5113017;28;19920;-80
2023/09/19 15:33:24;;;;;;;;;;;16.90;99.90;;;;;;5113106;28;20046;-78
2023/09/19 15:35:49;;;;;;;;;;;16.90;99.90;;;;;;5114983;28;20038;-77
2023/09/19 15:38:15;;;;;;;;;;;16.90;99.90;;;;;;5113395;28;20265;-77
2023/09/19 15:40:47;;;;;;;;;;;16.90;99.90;;;;;;5114190;27;19923;-78
2023/09/19 15:43:12;;;;;;;;;;;16.80;99.90;;;;;;5113310;28;20014;-79
2023/09/19 15:45:38;;;;;;;;;;;16.70;99.90;;;;;;5096274;28;19969;-77
2023/09/19 15:48:04;;;;;;;;;;;16.70;99.90;;;;;;5114531;28;19920;-78
2023/09/19 15:50:30;;;;;;;;;;;16.70;99.90;;;;;;5112960;28;19919;-78
2023/09/19 15:52:56;;;;;;;;;;;16.60;99.90;;;;;;5114479;28;19930;-80
2023/09/19 15:55:21;;;;;;;;;;;16.60;99.90;;;;;;5112913;28;19920;-78
2023/09/19 15:57:47;;;;;;;;;;;16.60;99.90;;;;;;5114399;28;20294;-78
2023/09/19 16:00:17;;;;;;;;;;;16.50;99.90;;;;;;5112720;28;19923;-78
2023/09/19 16:02:42;;;;;;;;;;;16.40;99.90;;;;;;5112798;28;20049;-80
2023/09/19 16:05:08;;;;;;;;;;;16.40;99.90;;;;;;5112743;28;20006;-79
2023/09/19 16:07:34;;;;;;;;;;;16.30;99.90;;;;;;5114406;28;19919;-80
2023/09/19 16:10:02;;;;;;;;;;;16.30;99.90;;;;;;5114116;28;20028;-77
2023/09/19 16:12:27;;;;;;;;;;;16.20;99.90;;;;;;5114269;28;20023;-78
2023/09/19 16:14:53;;;;;;;;;;;16.10;99.90;;;;;;5115918;28;20382;-77
2023/09/19 16:17:18;;;;;;;;;;;16.10;99.90;;;;;;5118157;28;20371;-81
2023/09/19 16:19:44;;;;;;;;;;;16.00;99.90;;;;;;5118159;28;19919;-79
2023/09/19 16:22:10;;;;;;;;;;;16.00;99.90;;;;;;5118215;28;19972;-78
2023/09/19 16:24:35;;;;;;;;;;;16.00;99.90;;;;;;5116766;28;19927;-75
2023/09/19 16:27:01;;;;;;;;;;;16.00;99.90;;;;;;5116753;28;19926;-77
2023/09/19 16:29:27;;;;;;;;;;;16.00;99.90;;;;;;5116648;28;19924;-80
2023/09/19 16:31:52;;;;;;;;;;;16.00;99.90;;;;;;5116872;28;19920;-77
2023/09/19 16:34:18;;;;;;;;;;;16.00;99.90;;;;;;5118352;28;19920;-77
2023/09/19 16:36:44;;;;;;;;;;;15.90;99.90;;;;;;5118035;28;20286;-79
2023/09/19 16:39:10;;;;;;;;;;;15.90;99.90;;;;;;5116666;28;20371;-77
2023/09/19 16:41:36;;;;;;;;;;;15.90;99.90;;;;;;5116248;28;19996;-79
2023/09/19 16:44:07;;;;;;;;;;;15.90;99.90;;;;;;5116639;28;20002;-77
2023/09/19 16:46:32;;;;;;;;;;;15.90;99.90;;;;;;5117837;28;19926;-79
2023/09/19 16:48:58;;;;;;;;;;;15.90;99.90;;;;;;5099152;28;20006;-78
2023/09/19 16:51:24;;;;;;;;;;;15.90;99.90;;;;;;5117771;28;19920;-78
2023/09/19 16:53:52;;;;;;;;;;;15.80;99.90;;;;;;5116053;28;20018;-77
2023/09/19 16:56:18;;;;;;;;;;;15.80;99.90;;;;;;5100152;28;19919;-77
2023/09/19 16:58:48;;;;;;;;;;;15.80;99.90;;;;;;5117372;28;20022;-77
2023/09/19 17:01:14;;;;;;;;;;;15.80;99.90;;;;;;5115588;28;19923;-76
2023/09/19 17:03:40;;;;;;;;;;;15.80;99.90;;;;;;5116240;28;19965;-77
2023/09/19 17:06:08;;;;;;;;;;;15.80;99.90;;;;;;5115814;28;20416;-77
2023/09/19 17:08:34;;;;;;;;;;;15.80;99.90;;;;;;5113412;28;20404;-79
2023/09/19 17:11:03;;;;;;;;;;;15.80;99.90;;;;;;5096520;28;19919;-80
2023/09/19 17:13:29;;;;;;;;;;;15.80;99.90;;;;;;5095536;28;20275;-79
2023/09/19 17:15:59;;;;;;;;;;;15.80;99.90;;;;;;5095325;28;19976;-78
2023/09/19 17:18:24;;;;;;;;;;;15.80;99.90;;;;;;5095171;28;19927;-78
2023/09/19 17:20:50;;;;;;;;;;;15.80;99.90;;;;;;5078188;28;19924;-79
2023/09/19 17:23:16;;;;;;;;;;;15.80;99.90;;;;;;5095621;28;19924;-78